KFRR/FRR METAR and TAF weather

Enter ICAO airport designator
Station Type Date Time Source
KFRR METAR 2019/08/25 17:55 UTC NOAA

KFRR 251755Z AUTO 09006KT 10SM BKN060 22/11 A3020 RMK AO1


Station Type Date Time Source
KFRR Decoded METAR 2019/08/25 17:55 UTC NOAA

Station name not available
Aug 25, 2019 - 01:55 PM EDT / 2019.08.25 1755 UTC
Wind: from the E (090 degrees) at 7 MPH (6 KT):0
Visibility: 10 mile(s):0
Sky conditions: mostly cloudy
Temperature: 71 F (22 C)
Dew Point: 51 F (11 C)
Relative Humidity: 49%
Pressure (altimeter): 30.2 in. Hg (1022 hPa)
ob: KFRR 251755Z AUTO 09006KT 10SM BKN060 22/11 A3020 RMK AO1
cycle: 18

Station Type Date Time Source
KFRR TAF UTC NOAA

Error!

Example: see airport list